Time;durP1;ratioP1;P1;durP2;ratioP2;P2;SDS_P1;SDS_P2;PMS_P1;PMS_P2;Temp;Humidity;BMP_temperature;BMP_pressure;BME280_temperature;BME280_humidity;BME280_pressure;Samples;Min_cycle;Max_cycle;Signal;HPM_P1;HPM_P2
2022/01/22 00:02:18;;;;;;;180.65;64.25;;;;;;;2.46;100.00;101622.78;4930824;29;20123;-84
2022/01/22 00:04:44;;;;;;;163.07;62.05;;;;;;;2.57;100.00;101624.81;4933214;29;20075;-86
2022/01/22 00:07:12;;;;;;;167.48;58.80;;;;;;;2.81;100.00;101622.63;4936820;23;20068;-89
2022/01/22 00:09:50;;;;;;;157.27;57.78;;;;;;;2.95;100.00;101625.31;4932340;29;20032;-83
2022/01/22 00:15:05;;;;;;;148.00;53.53;;;;;;;2.70;100.00;101624.97;4945058;23;20107;-86
2022/01/22 00:17:31;;;;;;;153.20;55.92;;;;;;;2.75;100.00;101625.56;4926568;29;20044;-89
2022/01/22 00:20:02;;;;;;;171.75;59.17;;;;;;;2.71;100.00;101639.75;4925762;29;20044;-87
2022/01/22 00:22:31;;;;;;;173.02;61.28;;;;;;;2.65;100.00;101638.34;4922322;29;20044;-84
2022/01/22 00:24:59;;;;;;;175.48;60.75;;;;;;;2.65;100.00;101640.09;4923878;29;20052;-86
2022/01/22 00:27:26;;;;;;;181.80;61.97;;;;;;;2.86;100.00;101631.88;4920935;29;20055;-85
2022/01/22 00:29:52;;;;;;;213.75;65.22;;;;;;;2.91;100.00;101629.03;4929815;29;20035;-85
2022/01/22 00:32:17;;;;;;;225.20;68.07;;;;;;;2.84;100.00;101625.06;4925690;29;20040;-84
2022/01/22 00:34:43;;;;;;;209.00;67.90;;;;;;;2.94;100.00;101634.09;4925724;29;20028;-85
2022/01/22 00:37:09;;;;;;;217.98;71.30;;;;;;;2.67;100.00;101635.59;4925866;29;20040;-85
2022/01/22 00:39:36;;;;;;;209.75;65.93;;;;;;;2.65;100.00;101635.72;4922257;29;20040;-85
2022/01/22 00:42:08;;;;;;;218.40;70.47;;;;;;;2.53;100.00;101634.59;4928464;29;20071;-86
2022/01/22 00:44:41;;;;;;;200.40;53.67;;;;;;;2.17;100.00;101647.03;4951116;29;20060;-84
2022/01/22 00:47:07;;;;;;;252.45;67.70;;;;;;;2.00;100.00;101639.22;4923810;29;20039;-84
2022/01/22 00:49:34;;;;;;;237.25;68.80;;;;;;;2.06;100.00;101644.13;4924822;29;20036;-85
2022/01/22 00:52:00;;;;;;;301.15;70.03;;;;;;;1.80;100.00;101650.72;4925358;29;20040;-87
2022/01/22 00:54:26;;;;;;;223.65;66.70;;;;;;;1.83;100.00;101652.31;4925511;29;20541;-86
2022/01/22 00:56:51;;;;;;;207.05;65.95;;;;;;;1.76;100.00;101651.78;4939775;29;20044;-90
2022/01/22 00:59:17;;;;;;;184.73;59.92;;;;;;;1.63;100.00;101655.09;4908211;29;20032;-86
2022/01/22 01:01:43;;;;;;;185.15;57.78;;;;;;;1.78;100.00;101656.94;4939792;29;20044;-91
2022/01/22 01:04:11;;;;;;;163.75;53.72;;;;;;;1.87;100.00;101652.09;4940379;29;20047;-91
2022/01/22 01:06:38;;;;;;;156.65;51.55;;;;;;;1.99;100.00;101663.66;4924328;29;20036;-88
2022/01/22 01:09:10;;;;;;;136.85;48.10;;;;;;;1.79;100.00;101661.25;4920584;29;20088;-88
2022/01/22 01:11:43;;;;;;;139.00;47.92;;;;;;;1.65;100.00;101666.34;4920595;29;20040;-86
2022/01/22 01:14:14;;;;;;;128.32;44.35;;;;;;;1.76;100.00;101671.84;4937448;29;20044;-84
2022/01/22 01:33:37;;;;;;;101.60;37.58;;;;;;;2.27;100.00;101663.94;4924205;29;20040;-88
2022/01/22 01:36:05;;;;;;;100.03;37.20;;;;;;;2.36;100.00;101670.44;4921694;29;20052;-86
2022/01/22 01:38:37;;;;;;;111.72;37.30;;;;;;;2.17;100.00;101664.50;4935611;29;20494;-90
2022/01/22 01:41:11;;;;;;;97.70;35.80;;;;;;;2.05;100.00;101668.59;4936890;29;20075;-87
2022/01/22 01:43:38;;;;;;;97.03;35.63;;;;;;;2.18;100.00;101667.03;4920834;29;20040;-86
2022/01/22 01:46:29;;;;;;;105.28;38.83;;;;;;;1.88;100.00;101671.25;4920028;29;20067;-88
2022/01/22 01:48:56;;;;;;;107.13;37.58;;;;;;;1.85;100.00;101666.16;4919803;29;20103;-87
2022/01/22 01:51:25;;;;;;;99.18;37.25;;;;;;;1.97;100.00;101660.31;4905602;29;20520;-86
2022/01/22 01:54:02;;;;;;;100.03;37.08;;;;;;;1.94;100.00;101653.47;4918995;29;20040;-86
2022/01/22 01:59:31;;;;;;;106.65;36.80;;;;;;;1.76;100.00;101650.94;4880564;29;20052;-87
2022/01/22 02:01:59;;;;;;;114.75;40.17;;;;;;;1.78;100.00;101659.56;4880446;29;20360;-85
2022/01/22 02:04:25;;;;;;;97.45;37.00;;;;;;;1.98;100.00;101662.00;4884546;29;20049;-85
2022/01/22 02:06:51;;;;;;;108.88;39.40;;;;;;;1.91;100.00;101663.25;4882744;29;20143;-84
2022/01/22 02:09:18;;;;;;;115.10;39.35;;;;;;;1.82;100.00;101653.25;4895234;29;20045;-88
2022/01/22 02:11:45;;;;;;;109.75;40.42;;;;;;;1.89;100.00;101649.41;4888578;29;20065;-84
2022/01/22 02:25:26;;;;;;;127.35;45.35;;;;;;;1.97;100.00;101626.31;4884523;29;20045;-89
2022/01/22 02:27:51;;;;;;;124.60;42.60;;;;;;;2.08;100.00;101626.63;4879706;29;20044;-87
2022/01/22 02:30:26;;;;;;;116.43;40.85;;;;;;;2.36;100.00;101623.34;4926027;29;20052;-86
2022/01/22 02:35:54;;;;;;;121.78;41.92;;;;;;;2.32;100.00;101627.91;4939115;29;20036;-86
2022/01/22 02:38:47;;;;;;;117.65;43.15;;;;;;;2.37;100.00;101638.13;4923106;29;20040;-86
2022/01/22 02:41:17;;;;;;;128.73;44.90;;;;;;;2.35;100.00;101630.38;4917837;29;20067;-88
2022/01/22 02:43:43;;;;;;;122.60;43.17;;;;;;;2.51;100.00;101641.69;4920913;29;20422;-86
2022/01/22 02:46:10;;;;;;;124.75;42.47;;;;;;;2.44;100.00;101639.50;4919340;29;20134;-86
2022/01/22 02:48:36;;;;;;;120.97;43.17;;;;;;;2.43;100.00;101645.63;4920351;29;20378;-87
2022/01/22 02:51:01;;;;;;;135.25;44.63;;;;;;;2.26;100.00;101633.47;4921569;29;20040;-89
2022/01/22 02:53:27;;;;;;;133.68;46.78;;;;;;;2.18;100.00;101638.28;4921633;29;20040;-88
2022/01/22 02:55:54;;;;;;;130.20;46.97;;;;;;;2.26;100.00;101646.53;4919868;29;20040;-87
2022/01/22 02:58:20;;;;;;;148.27;49.60;;;;;;;2.26;100.00;101635.22;4920109;29;20040;-89
2022/01/22 03:00:46;;;;;;;153.70;50.72;;;;;;;2.26;100.00;101636.06;4919734;29;20111;-88
2022/01/22 03:03:12;;;;;;;169.13;54.92;;;;;;;2.23;100.00;101636.25;4920516;29;20124;-87
2022/01/22 03:05:38;;;;;;;155.88;53.50;;;;;;;2.20;100.00;101643.41;4919192;29;20046;-88
2022/01/22 03:08:08;;;;;;;159.43;53.17;;;;;;;2.33;100.00;101641.81;4921127;29;20115;-89
2022/01/22 03:10:33;;;;;;;171.98;54.53;;;;;;;2.32;100.00;101633.13;4935760;29;20044;-90
2022/01/22 03:18:04;;;;;;;162.95;52.72;;;;;;;2.06;100.00;101628.44;4921130;29;20044;-87
2022/01/22 03:27:15;;;;;;;163.98;51.13;;;;;;;2.06;100.00;101633.66;4906034;29;20099;-88
2022/01/22 03:28:41;;;;;;;156.82;50.17;;;;;;;1.89;100.00;101624.09;4921462;29;20044;-85
2022/01/22 03:31:07;;;;;;;147.68;49.50;;;;;;;1.80;100.00;101631.56;4940236;29;20129;-85
2022/01/22 03:33:33;;;;;;;151.13;49.88;;;;;;;1.82;100.00;101629.75;4933373;29;20032;-86
2022/01/22 03:35:59;;;;;;;160.23;51.92;;;;;;;1.79;100.00;101624.69;4932530;29;20028;-87
2022/01/22 03:38:25;;;;;;;158.93;50.85;;;;;;;1.78;100.00;101626.44;4915823;29;20473;-84
2022/01/22 03:40:51;;;;;;;149.65;48.10;;;;;;;1.79;100.00;101627.28;4943276;29;20028;-87
2022/01/22 03:43:18;;;;;;;150.10;49.40;;;;;;;1.78;100.00;101622.97;4943277;29;20156;-86
2022/01/22 03:45:45;;;;;;;150.43;48.50;;;;;;;1.77;100.00;101621.28;4957932;28;20410;-87
2022/01/22 03:48:11;;;;;;;158.20;50.40;;;;;;;1.88;100.00;101624.19;4958428;28;20032;-89
2022/01/22 03:50:39;;;;;;;159.18;50.70;;;;;;;2.03;100.00;101618.16;4941589;29;20079;-88
2022/01/22 03:53:04;;;;;;;144.68;49.42;;;;;;;2.01;100.00;101620.00;4929926;29;20059;-88
2022/01/22 03:56:13;;;;;;;149.05;49.13;;;;;;;2.08;100.00;101624.00;4931374;29;20054;-87
2022/01/22 03:58:54;;;;;;;149.25;48.10;;;;;;;2.32;100.00;101616.63;4926040;29;20040;-87
2022/01/22 04:04:19;;;;;;;142.90;46.08;;;;;;;2.50;100.00;101603.38;4921460;29;19919;-90
2022/01/22 04:09:31;;;;;;;135.57;45.03;;;;;;;2.66;100.00;101602.50;4920629;29;20123;-84
2022/01/22 04:11:58;;;;;;;135.80;48.30;;;;;;;2.81;100.00;101592.06;4924351;29;20028;-84
2022/01/22 04:14:29;;;;;;;128.20;45.10;;;;;;;2.78;100.00;101589.59;4912442;29;20050;-88
2022/01/22 04:24:54;;;;;;;133.32;44.78;;;;;;;2.79;100.00;101595.66;4926268;29;20502;-84
2022/01/22 04:27:27;;;;;;;134.32;46.55;;;;;;;2.34;100.00;101601.66;4923193;29;20037;-88
2022/01/22 04:29:54;;;;;;;125.03;44.47;;;;;;;2.19;100.00;101595.47;4923445;29;20044;-88
2022/01/22 04:32:21;;;;;;;127.75;43.38;;;;;;;2.40;100.00;101586.47;4924060;29;20028;-87
2022/01/22 04:34:47;;;;;;;132.10;43.05;;;;;;;2.12;100.00;101588.06;4937409;29;20059;-85
2022/01/22 04:37:14;;;;;;;127.43;43.30;;;;;;;2.42;100.00;101584.63;4923820;29;20043;-86
2022/01/22 04:39:40;;;;;;;111.80;40.90;;;;;;;2.58;100.00;101580.25;4921471;29;20046;-87
2022/01/22 04:42:06;;;;;;;114.15;41.17;;;;;;;2.45;100.00;101589.69;4919807;29;20036;-85
2022/01/22 04:44:36;;;;;;;113.82;41.90;;;;;;;2.31;100.00;101597.47;4921349;29;20466;-87
2022/01/22 04:55:00;;;;;;;113.38;40.53;;;;;;;2.26;100.00;101602.06;4934810;29;20054;-85
2022/01/22 04:57:32;;;;;;;110.55;40.15;;;;;;;2.49;100.00;101601.66;4945769;29;20122;-88
2022/01/22 04:59:58;;;;;;;107.88;39.47;;;;;;;2.56;100.00;101602.19;4919912;29;20039;-88
2022/01/22 05:02:23;;;;;;;112.85;41.00;;;;;;;2.37;100.00;101597.13;4935793;29;20043;-87
2022/01/22 05:05:04;;;;;;;104.10;39.75;;;;;;;2.46;100.00;101601.00;4903953;29;20040;-89
2022/01/22 05:07:52;;;;;;;109.75;39.60;;;;;;;2.74;100.00;101605.56;4919389;29;20115;-86
2022/01/22 05:10:43;;;;;;;112.83;39.57;;;;;;;2.59;100.00;101597.63;4935472;29;20123;-85
2022/01/22 05:13:08;;;;;;;113.30;40.17;;;;;;;2.55;100.00;101606.56;4933238;29;20123;-88
2022/01/22 05:15:34;;;;;;;114.68;41.70;;;;;;;2.47;100.00;101608.78;4919244;29;20512;-85
2022/01/22 05:18:04;;;;;;;115.60;40.42;;;;;;;2.51;100.00;101606.84;4918308;29;20037;-87
2022/01/22 05:20:35;;;;;;;112.63;41.40;;;;;;;2.56;100.00;101613.50;4940578;29;20083;-85
2022/01/22 05:23:12;;;;;;;108.25;39.80;;;;;;;2.43;100.00;101607.25;4935293;29;20018;-86
2022/01/22 05:25:53;;;;;;;114.63;41.53;;;;;;;2.44;100.00;101619.41;4941014;29;20043;-87
2022/01/22 05:39:29;;;;;;;121.95;42.15;;;;;;;2.51;100.00;101606.84;4918699;29;20048;-82
2022/01/22 05:41:55;;;;;;;123.15;42.78;;;;;;;2.65;100.00;101595.59;4918378;29;20036;-87
2022/01/22 05:44:21;;;;;;;120.93;44.22;;;;;;;2.57;100.00;101604.72;4935645;29;20037;-81
2022/01/22 05:46:50;;;;;;;113.68;42.75;;;;;;;2.59;100.00;101594.16;4932065;29;20067;-85
2022/01/22 05:49:16;;;;;;;123.05;41.40;;;;;;;2.65;100.00;101598.22;4917050;29;20043;-83
2022/01/22 05:51:45;;;;;;;119.00;42.45;;;;;;;2.64;100.00;101601.75;4903385;29;20446;-84
2022/01/22 05:59:36;;;;;;;117.05;42.28;;;;;;;2.26;100.00;101602.06;4897512;29;20044;-87
2022/01/22 06:02:08;;;;;;;119.53;40.92;;;;;;;2.39;100.00;101595.25;4899057;29;20498;-86
2022/01/22 06:04:35;;;;;;;117.95;42.28;;;;;;;2.35;100.00;101588.53;4899388;29;20040;-84
2022/01/22 06:07:05;;;;;;;126.43;42.08;;;;;;;2.20;100.00;101591.09;4899817;29;20036;-83
2022/01/22 06:09:33;;;;;;;132.60;45.97;;;;;;;2.02;100.00;101585.09;4897618;29;20068;-84
2022/01/22 06:12:31;;;;;;;122.15;43.45;;;;;;;1.96;100.00;101588.88;4901007;29;20080;-86
2022/01/22 06:14:53;;;;;;;131.80;45.78;;;;;;;1.71;100.00;101585.88;4899241;29;20062;-88
2022/01/22 06:17:19;;;;;;;139.88;46.90;;;;;;;1.82;100.00;101582.69;4911671;29;20088;-84
2022/01/22 06:19:51;;;;;;;127.78;43.70;;;;;;;1.99;100.00;101587.84;4923789;29;20045;-85
2022/01/22 06:22:17;;;;;;;138.45;45.63;;;;;;;2.04;100.00;101598.94;4909798;29;20044;-87
2022/01/22 06:24:42;;;;;;;131.40;44.17;;;;;;;1.97;100.00;101602.78;4888017;29;20028;-90
2022/01/22 06:27:09;;;;;;;118.45;40.53;;;;;;;1.82;100.00;101594.00;4905646;29;20042;-88
2022/01/22 06:29:35;;;;;;;122.40;41.97;;;;;;;1.69;100.00;101602.56;4903898;29;20510;-89
2022/01/22 06:32:01;;;;;;;115.15;40.75;;;;;;;1.89;100.00;101604.97;4902093;29;20075;-88
2022/01/22 06:34:31;;;;;;;121.28;42.28;;;;;;;1.82;100.00;101606.22;4902105;29;20040;-85
2022/01/22 06:36:57;;;;;;;117.38;41.72;;;;;;;1.68;100.00;101603.47;4904821;29;20051;-87
2022/01/22 06:39:24;;;;;;;117.60;40.30;;;;;;;1.50;100.00;101593.03;4908087;29;20045;-86
2022/01/22 06:42:08;;;;;;;119.93;40.70;;;;;;;1.64;100.00;101594.09;4910646;29;20067;-88
2022/01/22 06:45:08;;;;;;;109.10;37.88;;;;;;;1.53;100.00;101592.88;4907712;29;20039;-86
2022/01/22 06:47:49;;;;;;;112.60;39.63;;;;;;;1.55;100.00;101595.44;4911260;29;20045;-89
2022/01/22 06:50:21;;;;;;;107.55;36.85;;;;;;;1.58;100.00;101590.03;4891458;29;20035;-83
2022/01/22 06:53:03;;;;;;;108.95;37.80;;;;;;;1.71;100.00;101592.84;4889431;29;20037;-87
2022/01/22 06:55:47;;;;;;;98.80;34.38;;;;;;;1.52;100.00;101591.19;4904766;29;20036;-86
2022/01/22 06:58:15;;;;;;;96.90;34.60;;;;;;;1.19;100.00;101592.91;4905088;29;20044;-86
2022/01/22 07:00:50;;;;;;;87.63;33.05;;;;;;;0.98;100.00;101604.38;4914021;29;20041;-84
2022/01/22 07:03:23;;;;;;;86.65;31.50;;;;;;;0.92;100.00;101594.25;4917806;29;20108;-84
2022/01/22 07:05:59;;;;;;;83.75;30.95;;;;;;;1.15;100.00;101599.19;4911698;29;20514;-84
2022/01/22 07:08:30;;;;;;;81.53;30.20;;;;;;;1.15;100.00;101591.34;4900840;29;20044;-86
2022/01/22 07:10:59;;;;;;;78.97;30.08;;;;;;;1.13;100.00;101587.16;4900814;29;20052;-85
2022/01/22 07:13:25;;;;;;;79.93;29.35;;;;;;;0.83;100.00;101576.44;4900277;29;20058;-85
2022/01/22 07:15:53;;;;;;;80.78;30.73;;;;;;;0.70;100.00;101572.69;4899788;29;20055;-84
2022/01/22 07:18:21;;;;;;;78.03;28.98;;;;;;;0.71;100.00;101574.41;4901617;29;20045;-85
2022/01/22 07:20:49;;;;;;;85.70;29.65;;;;;;;1.09;100.00;101586.44;4901965;29;20036;-84
2022/01/22 07:25:58;;;;;;;82.78;29.48;;;;;;;1.40;100.00;101581.38;4900163;29;20093;-84
2022/01/22 07:28:39;;;;;;;82.45;28.40;;;;;;;1.37;100.00;101581.53;4887293;29;20392;-86
2022/01/22 07:31:07;;;;;;;82.47;27.92;;;;;;;1.44;100.00;101580.28;4902196;29;20118;-86
2022/01/22 07:33:35;;;;;;;89.88;28.73;;;;;;;1.53;100.00;101571.97;4901217;29;20033;-86
2022/01/22 07:36:02;;;;;;;112.70;28.67;;;;;;;1.92;100.00;101568.22;4901308;29;20040;-85
2022/01/22 07:38:27;;;;;;;89.32;27.05;;;;;;;1.79;100.00;101570.63;4902167;29;20033;-88
2022/01/22 07:41:01;;;;;;;90.32;24.92;;;;;;;2.21;100.00;101564.03;4911361;29;20060;-86
2022/01/22 07:43:38;;;;;;;64.57;25.67;;;;;;;2.40;100.00;101568.19;4920284;29;20060;-85
2022/01/22 07:46:19;;;;;;;74.78;27.65;;;;;;;2.29;100.00;101562.69;4904749;29;20168;-85
2022/01/22 07:49:08;;;;;;;83.20;26.70;;;;;;;2.02;100.00;101569.44;4906664;29;20043;-84
2022/01/22 07:51:42;;;;;;;68.15;25.77;;;;;;;2.18;100.00;101580.75;4917167;29;20036;-85
2022/01/22 07:54:08;;;;;;;64.97;25.65;;;;;;;1.82;100.00;101578.31;4922467;29;20047;-86
2022/01/22 07:56:35;;;;;;;76.30;27.23;;;;;;;1.87;100.00;101570.22;4908030;29;20021;-84
2022/01/22 07:59:01;;;;;;;66.63;25.88;;;;;;;1.82;100.00;101565.25;4906946;29;20041;-86
2022/01/22 08:01:31;;;;;;;77.05;27.98;;;;;;;2.00;100.00;101566.03;4922333;29;20013;-85
2022/01/22 08:04:12;;;;;;;78.47;28.50;;;;;;;2.42;100.00;101563.69;4921696;29;20065;-84
2022/01/22 08:07:03;;;;;;;88.65;31.00;;;;;;;2.69;100.00;101555.22;4904802;29;20495;-86
2022/01/22 08:09:47;;;;;;;91.18;31.30;;;;;;;2.74;100.00;101553.22;4908766;29;20100;-84
2022/01/22 08:12:51;;;;;;;94.60;33.65;;;;;;;2.93;100.00;101546.84;4909552;29;20092;-88
2022/01/22 08:15:44;;;;;;;87.03;31.42;;;;;;;3.29;100.00;101545.59;4915864;29;20017;-88
2022/01/22 08:18:17;;;;;;;96.30;32.90;;;;;;;2.77;100.00;101542.56;4906936;29;20032;-88
2022/01/22 08:20:44;;;;;;;100.78;32.50;;;;;;;2.59;100.00;101542.66;4904576;29;20478;-88
2022/01/22 08:23:36;;;;;;;99.75;33.95;;;;;;;2.70;100.00;101539.44;4887653;29;20041;-86
2022/01/22 08:26:25;;;;;;;92.57;33.90;;;;;;;2.51;100.00;101542.28;4901566;29;20063;-85
2022/01/22 08:29:05;;;;;;;98.10;32.00;;;;;;;2.52;100.00;101533.47;4879050;29;20117;-89
2022/01/22 08:36:54;;;;;;;94.78;32.45;;;;;;;2.23;100.00;101531.63;4903125;29;20044;-85
2022/01/22 08:39:23;;;;;;;88.90;31.13;;;;;;;2.33;100.00;101534.59;4901863;29;20040;-88
2022/01/22 08:41:51;;;;;;;90.53;32.78;;;;;;;2.14;100.00;101542.59;4906341;29;20059;-85
2022/01/22 08:44:16;;;;;;;100.07;33.78;;;;;;;2.35;100.00;101537.97;4919040;29;20062;-83
2022/01/22 08:46:43;;;;;;;89.18;31.50;;;;;;;2.11;100.00;101550.63;4931154;29;20413;-86
2022/01/22 08:49:10;;;;;;;80.18;30.13;;;;;;;2.05;100.00;101543.13;4911838;29;20060;-87
2022/01/22 08:51:51;;;;;;;86.13;30.10;;;;;;;2.06;100.00;101542.16;4906430;29;20037;-87
2022/01/22 08:54:17;;;;;;;86.47;30.23;;;;;;;2.21;100.00;101543.97;4903371;29;20032;-87
2022/01/22 08:56:43;;;;;;;92.53;32.00;;;;;;;2.33;100.00;101545.91;4905155;29;20040;-86
2022/01/22 09:07:49;;;;;;;93.80;33.08;;;;;;;2.66;100.00;101555.41;5242959;23;20050;-80
2022/01/22 09:19:11;;;;;;;90.85;29.67;;;;;;;2.22;100.00;101550.03;5492654;23;20060;-82
2022/01/22 09:48:07;;;;;;;94.97;30.88;;;;;;;2.21;100.00;101528.28;5383875;23;20032;-81
2022/01/22 09:51:28;;;;;;;78.28;27.55;;;;;;;2.37;100.00;101508.19;4950988;29;20052;-82
2022/01/22 10:00:10;;;;;;;85.68;30.05;;;;;;;2.33;100.00;101527.59;4991895;23;20084;-79
2022/01/22 10:06:20;;;;;;;96.53;33.50;;;;;;;2.57;100.00;101534.06;4939528;23;20115;-84
2022/01/22 10:33:23;;;;;;;96.80;33.20;;;;;;;2.69;100.00;101515.97;4937941;29;20039;-80
2022/01/22 10:36:19;;;;;;;102.15;35.17;;;;;;;2.74;100.00;101513.94;4932336;29;20059;-79
2022/01/22 10:39:21;;;;;;;124.70;37.90;;;;;;;2.89;100.00;101505.19;4907954;29;20032;-79
2022/01/22 10:41:47;;;;;;;132.10;40.50;;;;;;;3.22;100.00;101518.94;4930830;29;20047;-78
2022/01/22 10:44:19;;;;;;;117.35;39.35;;;;;;;3.32;100.00;101522.69;4933258;29;20032;-81
2022/01/22 10:47:03;;;;;;;138.80;42.70;;;;;;;3.09;100.00;101529.28;4921120;29;20057;-79
2022/01/22 10:49:29;;;;;;;119.20;39.92;;;;;;;3.10;100.00;101536.22;4905349;29;20529;-81
2022/01/22 10:51:58;;;;;;;124.40;42.03;;;;;;;3.30;100.00;101528.97;4925962;29;20033;-79
2022/01/22 10:54:29;;;;;;;129.38;41.13;;;;;;;3.70;100.00;101537.91;4910824;29;20055;-78
2022/01/22 10:57:23;;;;;;;126.80;43.55;;;;;;;3.50;100.00;101536.47;4923015;29;20037;-79
2022/01/22 11:00:18;;;;;;;124.25;42.15;;;;;;;3.62;100.00;101530.50;4919624;29;20056;-80
2022/01/22 11:03:02;;;;;;;116.03;41.42;;;;;;;3.57;100.00;101525.53;4928796;29;20048;-81
2022/01/22 11:05:37;;;;;;;115.55;42.65;;;;;;;3.56;100.00;101513.38;4932391;29;20028;-80
2022/01/22 11:08:35;;;;;;;111.30;40.72;;;;;;;3.68;100.00;101501.28;4939186;29;20048;-82
2022/01/22 11:11:05;;;;;;;107.00;40.00;;;;;;;3.40;100.00;101498.66;4932447;29;20028;-80
2022/01/22 11:13:34;;;;;;;110.68;40.45;;;;;;;3.34;100.00;101499.88;4930044;29;20099;-82
2022/01/22 11:16:01;;;;;;;114.63;41.53;;;;;;;3.31;100.00;101500.06;4931841;29;20048;-79
2022/01/22 11:18:43;;;;;;;117.07;41.72;;;;;;;3.43;100.00;101501.94;4923772;29;20035;-80
2022/01/22 11:21:12;;;;;;;115.20;39.92;;;;;;;3.38;100.00;101483.03;4930802;29;20062;-80
2022/01/22 11:23:37;;;;;;;101.03;37.60;;;;;;;3.35;100.00;101471.88;4920210;23;20040;-83
2022/01/22 11:26:04;;;;;;;104.60;39.80;;;;;;;3.04;100.00;101460.66;4913681;29;20060;-83
2022/01/22 11:28:29;;;;;;;114.95;40.90;;;;;;;2.93;100.00;101470.06;4905386;29;20488;-82
2022/01/22 11:30:59;;;;;;;111.88;41.20;;;;;;;3.03;100.00;101468.59;4916712;29;20031;-81
2022/01/22 11:33:38;;;;;;;116.57;41.70;;;;;;;3.03;100.00;101471.19;4909874;29;20040;-85
2022/01/22 11:36:13;;;;;;;109.53;39.33;;;;;;;3.02;100.00;101482.59;4906521;29;20051;-77
2022/01/22 11:38:41;;;;;;;111.90;41.20;;;;;;;3.27;100.00;101489.84;4901679;29;20120;-83
2022/01/22 11:41:15;;;;;;;112.05;41.05;;;;;;;3.28;100.00;101500.22;4902780;29;20044;-81
2022/01/22 11:44:01;;;;;;;101.68;38.03;;;;;;;3.50;100.00;101500.66;4903546;29;20028;-80
2022/01/22 11:46:35;;;;;;;109.57;38.60;;;;;;;3.87;100.00;101501.00;4885663;29;20561;-78
2022/01/22 11:49:11;;;;;;;101.18;37.53;;;;;;;4.04;100.00;101490.31;4900845;29;20120;-80
2022/01/22 11:51:41;;;;;;;108.97;39.13;;;;;;;4.15;100.00;101490.44;4891672;29;20097;-80
2022/01/22 11:54:07;;;;;;;98.18;35.85;;;;;;;3.99;100.00;101485.34;4894534;29;20029;-80
2022/01/22 11:56:54;;;;;;;101.45;38.50;;;;;;;3.84;100.00;101483.69;4889221;29;20379;-90
2022/01/22 11:59:25;;;;;;;108.72;38.40;;;;;;;3.73;100.00;101477.41;4904728;29;20044;-83
2022/01/22 12:01:53;;;;;;;102.00;38.97;;;;;;;3.74;100.00;101468.63;4907391;29;20134;-84
2022/01/22 12:04:23;;;;;;;103.05;39.53;;;;;;;3.74;100.00;101452.88;4912075;29;20045;-83
2022/01/22 12:07:18;;;;;;;103.20;38.47;;;;;;;3.87;100.00;101445.94;4916027;29;20130;-82
2022/01/22 12:10:22;;;;;;;108.60;40.42;;;;;;;3.95;100.00;101451.53;4919275;29;20088;-83
2022/01/22 12:15:35;;;;;;;108.03;41.55;;;;;;;4.42;100.00;101451.94;4920240;29;20031;-82
2022/01/22 12:18:02;;;;;;;109.65;40.70;;;;;;;4.32;100.00;101440.38;4920165;29;20056;-81
2022/01/22 12:23:04;;;;;;;113.18;42.25;;;;;;;4.36;100.00;101447.09;4895567;29;20041;-84
2022/01/22 12:25:36;;;;;;;109.00;40.08;;;;;;;4.43;100.00;101458.88;4903211;29;20055;-86
2022/01/22 12:28:04;;;;;;;106.22;39.72;;;;;;;4.43;100.00;101453.63;4891747;29;20045;-86
2022/01/22 12:30:34;;;;;;;110.03;41.67;;;;;;;4.44;100.00;101460.56;4895978;29;20277;-82
2022/01/22 12:33:01;;;;;;;105.18;40.70;;;;;;;4.24;100.00;101441.81;4904261;29;20479;-83
2022/01/22 12:35:50;;;;;;;104.47;39.25;;;;;;;3.97;100.00;101439.19;4902109;29;20036;-86
2022/01/22 12:41:14;;;;;;;107.95;40.08;;;;;;;3.72;100.00;101429.38;4901619;29;20055;-87
2022/01/22 12:43:44;;;;;;;106.47;40.05;;;;;;;3.77;100.00;101437.81;4900782;29;20040;-84
2022/01/22 12:46:09;;;;;;;117.85;41.67;;;;;;;3.88;100.00;101434.53;4896338;29;20027;-83
2022/01/22 12:48:38;;;;;;;102.85;40.20;;;;;;;3.82;100.00;101429.63;4900348;29;20040;-87
2022/01/22 12:51:07;;;;;;;108.07;41.47;;;;;;;3.78;100.00;101438.66;4909352;29;20087;-84
2022/01/22 12:53:35;;;;;;;112.15;42.05;;;;;;;3.87;100.00;101448.56;4899444;29;20451;-84
2022/01/22 12:58:38;;;;;;;105.93;38.67;;;;;;;4.04;100.00;101440.47;4885521;29;20044;-83
2022/01/22 13:01:21;;;;;;;106.35;39.25;;;;;;;4.13;100.00;101424.97;4897246;29;20124;-86
2022/01/22 13:03:52;;;;;;;99.43;38.92;;;;;;;4.11;100.00;101413.72;4911009;29;20478;-85
2022/01/22 13:06:21;;;;;;;99.68;38.90;;;;;;;4.13;100.00;101403.16;4898691;29;20067;-84
2022/01/22 13:09:06;;;;;;;96.90;38.13;;;;;;;4.24;100.00;101394.59;4892828;29;20119;-82
2022/01/22 13:11:46;;;;;;;105.75;39.60;;;;;;;4.28;100.00;101390.78;4897810;29;20032;-81
2022/01/22 13:14:15;;;;;;;100.53;37.70;;;;;;;4.41;100.00;101387.25;4898814;29;20378;-83
2022/01/22 13:16:52;;;;;;;102.82;38.20;;;;;;;4.46;100.00;101374.69;4892716;29;20116;-82
2022/01/22 13:19:20;;;;;;;99.05;39.70;;;;;;;4.39;100.00;101383.06;4900214;29;20502;-85
2022/01/22 13:22:04;;;;;;;100.70;40.35;;;;;;;4.22;100.00;101378.09;4893217;29;20039;-86
2022/01/22 13:24:31;;;;;;;100.53;38.67;;;;;;;4.27;100.00;101369.00;4892568;29;20041;-83
2022/01/22 13:27:13;;;;;;;106.22;39.55;;;;;;;4.29;100.00;101374.97;4910302;29;20072;-83
2022/01/22 13:29:54;;;;;;;103.55;39.58;;;;;;;4.30;100.00;101376.66;4906232;29;20418;-83
2022/01/22 13:39:10;;;;;;;90.40;35.63;;;;;;;4.62;100.00;101370.09;4890258;29;20476;-82
2022/01/22 13:49:52;;;;;;;84.57;35.90;;;;;;;4.59;100.00;101364.22;4910072;29;20048;-88
2022/01/22 13:52:19;;;;;;;94.65;36.80;;;;;;;4.79;100.00;101360.22;4912313;29;20044;-84
2022/01/22 13:54:50;;;;;;;82.28;34.50;;;;;;;4.73;100.00;101360.66;4908027;29;20039;-84
2022/01/22 13:57:18;;;;;;;81.20;33.40;;;;;;;4.75;100.00;101353.50;4909555;29;20032;-83
2022/01/22 13:59:46;;;;;;;79.20;34.63;;;;;;;4.69;100.00;101344.28;4910780;29;20149;-84
2022/01/22 14:02:49;;;;;;;83.97;34.50;;;;;;;4.88;100.00;101341.22;4909341;29;20035;-81
2022/01/22 14:05:13;;;;;;;79.35;33.92;;;;;;;4.83;100.00;101335.44;4909856;29;20099;-84
2022/01/22 14:07:48;;;;;;;82.10;34.78;;;;;;;4.77;100.00;101334.09;4915902;29;20036;-84
2022/01/22 14:10:19;;;;;;;82.05;33.50;;;;;;;4.81;100.00;101332.06;4915771;29;20040;-82
2022/01/22 14:12:51;;;;;;;82.30;33.70;;;;;;;4.84;100.00;101331.88;4912815;29;20390;-85
2022/01/22 14:15:27;;;;;;;80.30;33.05;;;;;;;4.94;100.00;101327.69;4914089;29;20036;-84
2022/01/22 14:18:16;;;;;;;82.03;35.05;;;;;;;4.84;100.00;101334.50;4916702;29;20044;-83
2022/01/22 14:20:52;;;;;;;80.30;32.80;;;;;;;4.98;100.00;101342.25;4916956;29;20040;-84
2022/01/22 14:23:24;;;;;;;80.85;33.45;;;;;;;5.07;100.00;101334.56;4916408;29;20039;-84
2022/01/22 14:26:04;;;;;;;76.90;34.70;;;;;;;5.24;100.00;101333.38;4916898;29;20050;-83
2022/01/22 14:28:54;;;;;;;80.82;33.00;;;;;;;5.33;100.00;101329.28;4916589;29;20067;-84
2022/01/22 14:31:24;;;;;;;70.72;30.67;;;;;;;5.15;100.00;101328.78;4910601;29;20096;-84
2022/01/22 14:33:50;;;;;;;77.78;33.30;;;;;;;5.08;100.00;101338.03;4915662;29;20104;-82
2022/01/22 14:36:19;;;;;;;74.32;33.45;;;;;;;5.00;100.00;101328.09;4916941;29;20079;-82
2022/01/22 14:38:57;;;;;;;77.18;33.70;;;;;;;5.05;100.00;101328.59;4923877;29;20044;-84
2022/01/22 14:44:33;;;;;;;78.53;33.10;;;;;;;5.26;100.00;101349.91;4922177;29;20036;-84
2022/01/22 14:47:05;;;;;;;79.53;34.58;;;;;;;5.18;100.00;101352.22;4920857;29;20072;-83
2022/01/22 14:49:40;;;;;;;70.90;32.83;;;;;;;5.22;100.00;101353.69;4921379;29;20052;-87